Airfield :
LOGIN :

Register | Disclaimer

   EN    FR    IT 

 










Legend :    VFR   Marginal VFR   IFR   Intensive IFR   Very Intensive IFR
Visi :
Ceiling :
>= 8 km
>= 3000ft
5 to 8 km
1000 to 3000 ft
1500m to 5 km
500 to 1000 ft
800 to 1500m
200 to 500 ft
< 800m
< 200 ft
Symbols :   Thunderstorms  Fog  Heavy snow  Heavy precipitations  Wind > 20 kt
SIGMETs :     Misc.  Thunderstorms  Icing  Turbulence  Mountain Waves  Volcanic Ashes






- Airport Elevation : 1300 ft
- IATA code : LIG


LFBL - Limoges

CURRENT METAR :
  • 241400Z AUTO 21014KT 9999 BKN028 BKN034 BKN040 17/12 Q1007 TEMPO 26020G35KT 2000 BKN008 FEW025CB

EXPIRED METARs :
  • 241330Z AUTO 21018KT 9999 BKN028 OVC035 17/12 Q1007 TEMPO 26020G35KT 2000 BKN008 FEW025CB
  • 241300Z AUTO 22015KT 190V250 9999 SCT028 BKN037 BKN066 17/12 Q1007 TEMPO 26020G35KT 2000 BKN008 FEW025CB
  • 241230Z AUTO 21015KT 9999 BKN027 BKN035 OVC068 17/12 Q1008 TEMPO 26020G35KT 2000 BKN008 FEW025CB
  • 241200Z AUTO 21015KT 180V240 9999 BKN026 OVC034 17/12 Q1008 TEMPO 25015G25KT 4000 SHRA BKN008 FEW025CB
  • 241130Z AUTO 23013KT 9999 BKN025 OVC034 17/13 Q1008 TEMPO 25015G25KT 4000 SHRA BKN008 FEW025CB

TAF TAF LFBL
Valid from the 24 at 12:00 until the 25 at 12:00 UTC


241100Z 2412/2512 24014KT 9999 BKN016TCU
TEMPO 2412/2501 25015G25KT 4000 SHRA BKN008 FEW025CB
PROB40
TEMPO 2414/2421 26020G35KT 2000
PROB30
TEMPO 2416/2420 TSRA
PROB40 2504/2509 OVC006
ATIS : +33 5 55 48 40 37



MET'MAP, your aeronautical weather chart ! - Copyright ORBIFLY December 2007 - Disclaimer

ORBIFLY MET'MAP TEAM :

Programming & Development : Alexandra Zaïnal
Concept & original design : Baudouin d'Aumeries
Assistance for programming : Marc-Olivier Méhu
Technical & hardware support : Manuel Goepfert

Contact : metmap@orbifly.com




SOURCES & CREDITS :

   NOAA